This is the latest recevied weather packets stored in our database for station/object KN4MGS. If no packets are shown the sender has not sent any weather packets the latest 10 day(s).
| Time | Temp. | Humidity | Pressure | Rain* | Wind** | Luminosity | Snow |
|---|---|---|---|---|---|---|---|
| 1777579527 | 24.44° C | 51% | 1012.5 hPa | 0 mm | - | 287 W/m² | - |
| 1777579227 | 25° C | 51% | 1012.6 hPa | 0 mm | - | 260 W/m² | - |
| 1777578922 | 25° C | 50% | 1012.6 hPa | 0 mm | - | 285 W/m² | - |
| 1777578618 | 25° C | 52% | 1012.4 hPa | 0 mm | - | 523 W/m² | - |
| 1777578318 | 24.44° C | 52% | 1012.6 hPa | 0 mm | - | 276 W/m² | - |
| 1777578014 | 25° C | 50% | 1012.6 hPa | 0 mm | - | 228 W/m² | - |
| 1777577709 | 25° C | 50% | 1012.7 hPa | 0 mm | - | 734 W/m² | - |
| 1777577406 | 25.56° C | 48% | 1013 hPa | 0 mm | - | 741 W/m² | - |
| 1777577103 | 25.56° C | 51% | 1012.8 hPa | 0 mm | - | 723 W/m² | - |
| 1777576799 | 25° C | 51% | 1013.1 hPa | 0 mm | - | 705 W/m² | - |
| 1777576498 | 25.56° C | 54% | 1013.3 hPa | 0 mm | - | 649 W/m² | - |
| 1777576195 | 25° C | 56% | 1013 hPa | 0 mm | - | 720 W/m² | - |
| 1777575890 | 23.89° C | 57% | 1013.2 hPa | 0 mm | - | 783 W/m² | - |
| 1777575587 | 23.89° C | 59% | 1013.3 hPa | 0 mm | - | 258 W/m² | - |
| 1777575284 | 24.44° C | 58% | 1013.4 hPa | 0 mm | - | 711 W/m² | - |
| 1777574979 | 24.44° C | 57% | 1013.3 hPa | 0 mm | - | 245 W/m² | - |
| 1777574676 | 23.89° C | 56% | 1013.2 hPa | 0 mm | - | 778 W/m² | - |
| 1777574373 | 22.78° C | 61% | 1013.5 hPa | 0 mm | - | 797 W/m² | - |
| 1777574067 | 22.22° C | 62% | 1013.5 hPa | 0 mm | - | 226 W/m² | - |
| 1777573763 | 23.33° C | 58% | 1013.5 hPa | 0 mm | - | 387 W/m² | - |
| 1777573459 | 22.78° C | 62% | 1013.4 hPa | 0 mm | - | 153 W/m² | - |
| 1777573155 | 22.22° C | 61% | 1013.6 hPa | 0 mm | - | 222 W/m² | - |
| 1777572852 | 22.22° C | 60% | 1013.6 hPa | 0 mm | - | 208 W/m² | - |
| 1777572549 | 22.22° C | 61% | 1013.6 hPa | 0 mm | - | 236 W/m² | - |
| 1777572243 | 22.22° C | 60% | 1013.8 hPa | 0 mm | - | 288 W/m² | - |
* Rain latest hour (hover to see other rain measurements)
** Current wind speed in m/s (hover to see current wind gust speed)